Time;durP1;ratioP1;P1;durP2;ratioP2;P2;SDS_P1;SDS_P2;PMS_P1;PMS_P2;Temp;Humidity;BMP_temperature;BMP_pressure;BME280_temperature;BME280_humidity;BME280_pressure;Samples;Min_cycle;Max_cycle;Signal;HPM_P1;HPM_P2
2023/10/07 00:02:21;;;;;;;12.77;4.05;;;;;;;;;;5081321;28;20056;-58
2023/10/07 00:04:48;;;;;;;15.45;5.10;;;;;;;;;;5081774;28;20156;-60
2023/10/07 00:07:14;;;;;;;16.10;4.85;;;;;;;;;;5071088;28;20045;-60
2023/10/07 00:09:46;;;;;;;14.02;4.53;;;;;;;;;;5081516;28;20498;-59
2023/10/07 00:12:18;;;;;;;13.00;4.53;;;;;;;;;;5081863;28;20147;-59
2023/10/07 00:14:45;;;;;;;12.60;4.32;;;;;;;;;;5082217;28;20404;-58
2023/10/07 00:17:16;;;;;;;11.45;4.97;;;;;;;;;;5075534;28;20052;-60
2023/10/07 00:19:46;;;;;;;13.98;4.72;;;;;;;;;;5081820;28;20049;-59
2023/10/07 00:22:14;;;;;;;12.77;4.70;;;;;;;;;;5082349;28;20060;-59
2023/10/07 00:24:45;;;;;;;11.35;4.53;;;;;;;;;;5080874;28;20057;-60
2023/10/07 00:27:29;;;;;;;12.35;5.03;;;;;;;;;;5081196;28;20503;-59
2023/10/07 00:29:59;;;;;;;9.02;4.45;;;;;;;;;;5081153;28;20064;-59
2023/10/07 00:32:30;;;;;;;14.45;5.50;;;;;;;;;;5064822;28;20505;-60
2023/10/07 00:34:59;;;;;;;18.27;4.85;;;;;;;;;;5080979;28;20138;-60
2023/10/07 00:37:26;;;;;;;13.35;5.95;;;;;;;;;;5078700;28;20057;-60
2023/10/07 00:40:00;;;;;;;10.60;5.07;;;;;;;;;;5080151;28;20087;-60
2023/10/07 00:42:28;;;;;;;12.20;4.97;;;;;;;;;;5084612;28;20056;-60
2023/10/07 00:44:55;;;;;;;16.33;5.07;;;;;;;;;;5085790;28;20059;-60
2023/10/07 00:47:21;;;;;;;16.33;5.03;;;;;;;;;;5077567;28;20498;-60
2023/10/07 00:52:32;;;;;;;17.25;6.57;;;;;;;;;;5083908;28;20061;-60
2023/10/07 01:00:00;;;;;;;17.38;5.72;;;;;;;;;;5069399;28;20067;-59
2023/10/07 01:02:32;;;;;;;15.60;5.50;;;;;;;;;;5077798;28;20110;-58
2023/10/07 01:05:07;;;;;;;19.63;5.68;;;;;;;;;;5079598;28;20052;-60
2023/10/07 01:07:37;;;;;;;14.38;6.20;;;;;;;;;;5072892;28;20116;-59
2023/10/07 01:12:39;;;;;;;18.88;5.97;;;;;;;;;;5072259;28;20134;-60
2023/10/07 01:15:26;;;;;;;19.50;6.57;;;;;;;;;;5078296;28;20060;-60
2023/10/07 01:17:58;;;;;;;19.23;6.45;;;;;;;;;;5083803;28;20053;-60
2023/10/07 01:20:33;;;;;;;17.92;6.72;;;;;;;;;;5083896;28;20052;-60
2023/10/07 01:23:04;;;;;;;15.32;5.95;;;;;;;;;;5085774;28;20542;-59
2023/10/07 01:25:34;;;;;;;15.30;6.10;;;;;;;;;;5084356;28;20558;-60
2023/10/07 01:28:01;;;;;;;18.90;6.00;;;;;;;;;;5084083;28;20141;-60
2023/10/07 01:30:34;;;;;;;16.88;5.88;;;;;;;;;;5082028;28;20077;-59
2023/10/07 01:36:07;;;;;;;19.58;5.97;;;;;;;;;;5084014;28;20095;-59
2023/10/07 01:38:32;;;;;;;12.55;5.90;;;;;;;;;;5069386;28;20138;-59
2023/10/07 01:41:14;;;;;;;16.00;6.40;;;;;;;;;;5073416;28;20052;-60
2023/10/07 01:43:41;;;;;;;15.77;6.30;;;;;;;;;;5063200;28;20134;-58
2023/10/07 01:46:11;;;;;;;20.20;7.22;;;;;;;;;;5077283;28;20055;-59
2023/10/07 01:48:37;;;;;;;15.40;6.20;;;;;;;;;;5079835;28;20048;-59
2023/10/07 01:51:07;;;;;;;20.25;6.43;;;;;;;;;;5084702;28;20520;-59
2023/10/07 01:53:34;;;;;;;25.08;7.82;;;;;;;;;;5084366;28;20058;-59
2023/10/07 01:56:04;;;;;;;12.63;5.97;;;;;;;;;;5083118;28;20060;-57
2023/10/07 01:58:31;;;;;;;14.55;6.82;;;;;;;;;;5080736;28;20052;-59
2023/10/07 02:00:59;;;;;;;15.05;6.47;;;;;;;;;;5093366;27;20076;-60
2023/10/07 02:03:25;;;;;;;16.63;5.65;;;;;;;;;;5074975;28;20550;-60
2023/10/07 02:05:52;;;;;;;12.18;5.28;;;;;;;;;;5074857;28;20056;-60
2023/10/07 02:08:22;;;;;;;18.80;6.10;;;;;;;;;;5083735;28;20540;-60
2023/10/07 02:10:57;;;;;;;15.93;6.53;;;;;;;;;;5083590;28;20052;-59
2023/10/07 02:13:27;;;;;;;16.52;6.50;;;;;;;;;;5073396;28;20131;-60
2023/10/07 02:15:57;;;;;;;19.17;6.50;;;;;;;;;;5079909;28;20107;-60
2023/10/07 02:18:27;;;;;;;18.63;5.82;;;;;;;;;;5082936;28;20052;-60
2023/10/07 02:23:44;;;;;;;17.17;7.50;;;;;;;;;;5083248;28;20051;-60
2023/10/07 02:26:20;;;;;;;20.15;6.85;;;;;;;;;;5076909;28;20053;-60
2023/10/07 02:28:50;;;;;;;14.38;5.80;;;;;;;;;;5080980;28;20148;-61
2023/10/07 02:31:19;;;;;;;19.00;6.78;;;;;;;;;;5072265;28;20053;-60
2023/10/07 02:33:46;;;;;;;13.98;6.13;;;;;;;;;;5068766;28;20227;-60
2023/10/07 02:36:14;;;;;;;21.63;6.95;;;;;;;;;;5083565;28;20052;-60
2023/10/07 02:38:44;;;;;;;23.23;7.57;;;;;;;;;;5068893;28;20168;-59
2023/10/07 02:41:17;;;;;;;18.75;7.28;;;;;;;;;;5069146;28;20053;-60
2023/10/07 02:43:48;;;;;;;15.63;5.57;;;;;;;;;;5076789;28;20056;-60
2023/10/07 02:46:32;;;;;;;17.90;6.18;;;;;;;;;;5083271;28;20142;-60
2023/10/07 02:49:05;;;;;;;16.38;5.95;;;;;;;;;;5082451;28;20053;-60
2023/10/07 02:51:39;;;;;;;15.05;6.22;;;;;;;;;;5077813;28;20598;-59
2023/10/07 02:54:16;;;;;;;20.23;5.87;;;;;;;;;;5083561;28;20059;-60
2023/10/07 02:56:54;;;;;;;15.50;6.05;;;;;;;;;;5078119;28;20048;-60
2023/10/07 02:59:35;;;;;;;18.23;6.43;;;;;;;;;;5070708;28;20060;-60
2023/10/07 03:02:12;;;;;;;19.23;6.05;;;;;;;;;;5068061;28;20083;-60
2023/10/07 03:04:43;;;;;;;13.85;5.57;;;;;;;;;;5083176;28;20393;-60
2023/10/07 03:07:16;;;;;;;19.88;7.20;;;;;;;;;;5082775;28;20563;-60
2023/10/07 03:09:47;;;;;;;15.55;5.97;;;;;;;;;;5080757;28;20102;-58
2023/10/07 03:12:27;;;;;;;19.95;6.05;;;;;;;;;;5072640;28;20053;-60
2023/10/07 03:14:57;;;;;;;14.80;6.30;;;;;;;;;;5081629;28;20519;-58
2023/10/07 03:17:33;;;;;;;21.63;6.68;;;;;;;;;;5066743;28;20068;-60
2023/10/07 03:20:28;;;;;;;14.65;5.70;;;;;;;;;;5076993;28;20514;-60
2023/10/07 03:28:17;;;;;;;17.42;6.38;;;;;;;;;;5082537;28;20537;-60
2023/10/07 03:30:51;;;;;;;16.10;5.60;;;;;;;;;;5082088;28;20080;-58
2023/10/07 03:33:23;;;;;;;16.95;5.85;;;;;;;;;;5080002;28;20373;-59
2023/10/07 03:38:25;;;;;;;13.90;5.43;;;;;;;;;;5078281;28;20065;-60
2023/10/07 03:40:54;;;;;;;14.90;5.80;;;;;;;;;;5074575;28;20052;-60
2023/10/07 03:43:26;;;;;;;17.08;6.00;;;;;;;;;;5083106;28;20140;-59
2023/10/07 03:45:56;;;;;;;17.33;6.28;;;;;;;;;;5082255;28;20127;-59
2023/10/07 03:48:23;;;;;;;12.48;6.53;;;;;;;;;;5079860;28;20064;-60
2023/10/07 03:51:06;;;;;;;15.90;7.18;;;;;;;;;;5082285;28;20053;-60
2023/10/07 03:53:33;;;;;;;17.83;6.68;;;;;;;;;;5081125;28;20502;-61
2023/10/07 03:56:00;;;;;;;15.77;6.68;;;;;;;;;;5081738;28;20056;-60
2023/10/07 03:58:28;;;;;;;20.45;6.90;;;;;;;;;;5082205;28;20106;-59
2023/10/07 04:00:55;;;;;;;19.20;6.93;;;;;;;;;;5082123;28;20045;-60
2023/10/07 04:03:24;;;;;;;21.40;7.15;;;;;;;;;;5076889;28;20518;-59
2023/10/07 04:05:51;;;;;;;23.20;7.45;;;;;;;;;;5081833;28;20065;-60
2023/10/07 04:08:18;;;;;;;19.00;6.93;;;;;;;;;;5081296;28;20052;-60
2023/10/07 04:10:45;;;;;;;20.65;6.90;;;;;;;;;;5076669;28;20053;-59
2023/10/07 04:13:19;;;;;;;17.50;6.85;;;;;;;;;;5084107;28;20781;-60
2023/10/07 04:15:53;;;;;;;12.18;6.05;;;;;;;;;;5085139;28;20052;-59
2023/10/07 04:18:34;;;;;;;20.08;7.88;;;;;;;;;;5083331;28;20058;-59
2023/10/07 04:21:01;;;;;;;15.90;6.18;;;;;;;;;;5085323;28;20106;-59
2023/10/07 04:23:27;;;;;;;22.35;7.10;;;;;;;;;;5085222;28;20048;-59
2023/10/07 04:26:05;;;;;;;23.15;7.45;;;;;;;;;;5075445;28;20077;-60
2023/10/07 04:28:32;;;;;;;19.33;7.15;;;;;;;;;;5091930;28;20439;-60
2023/10/07 04:30:58;;;;;;;18.23;7.28;;;;;;;;;;5084334;28;20060;-59
2023/10/07 04:33:39;;;;;;;14.52;5.85;;;;;;;;;;5085883;28;20056;-60
2023/10/07 04:36:13;;;;;;;19.67;6.85;;;;;;;;;;5085356;28;20062;-60
2023/10/07 04:44:20;;;;;;;17.63;6.30;;;;;;;;;;5068287;28;20064;-59
2023/10/07 04:46:56;;;;;;;20.65;6.88;;;;;;;;;;5078627;28;20117;-59
2023/10/07 04:49:26;;;;;;;;;;;;;;;;;;5079416;28;20052;-60
2023/10/07 04:51:58;;;;;;;16.75;6.05;;;;;;;;;;5080804;28;45787;-58
2023/10/07 04:54:24;;;;;;;16.08;6.25;;;;;;;;;;5084086;28;20522;-59
2023/10/07 04:57:00;;;;;;;16.80;6.65;;;;;;;;;;5084904;28;20495;-60
2023/10/07 04:59:30;;;;;;;15.63;6.53;;;;;;;;;;5082487;28;20679;-59
2023/10/07 05:02:01;;;;;;;14.82;6.75;;;;;;;;;;5084406;28;20584;-57
2023/10/07 05:04:28;;;;;;;16.95;6.45;;;;;;;;;;5084056;28;20149;-59
2023/10/07 05:06:54;;;;;;;19.08;6.38;;;;;;;;;;5085477;28;20064;-60
2023/10/07 05:09:21;;;;;;;20.75;6.15;;;;;;;;;;5084205;28;20139;-59
2023/10/07 05:11:49;;;;;;;15.43;6.32;;;;;;;;;;5085225;28;20597;-60
2023/10/07 05:14:22;;;;;;;17.02;6.00;;;;;;;;;;5084295;28;20337;-60
2023/10/07 05:16:48;;;;;;;28.45;6.45;;;;;;;;;;5084872;28;20153;-60
2023/10/07 05:19:22;;;;;;;17.00;5.95;;;;;;;;;;5084816;28;20063;-59
2023/10/07 05:21:58;;;;;;;15.57;6.10;;;;;;;;;;5083987;28;20052;-59
2023/10/07 05:24:28;;;;;;;19.35;5.95;;;;;;;;;;5083542;28;20052;-59
2023/10/07 05:26:55;;;;;;;16.50;5.90;;;;;;;;;;5094261;27;20510;-60
2023/10/07 05:29:22;;;;;;;15.85;5.82;;;;;;;;;;5083015;28;20147;-60
2023/10/07 05:31:49;;;;;;;21.38;6.00;;;;;;;;;;5083535;28;20052;-59
2023/10/07 05:34:15;;;;;;;15.40;4.95;;;;;;;;;;5084232;28;20131;-59
2023/10/07 05:36:41;;;;;;;15.30;5.53;;;;;;;;;;5076333;28;20135;-58
2023/10/07 05:39:09;;;;;;;13.27;5.53;;;;;;;;;;5079021;28;20510;-59
2023/10/07 05:41:39;;;;;;;13.95;6.93;;;;;;;;;;5082914;28;20131;-60
2023/10/07 05:44:06;;;;;;;16.30;5.97;;;;;;;;;;5073055;28;20499;-60
2023/10/07 05:46:33;;;;;;;18.10;5.60;;;;;;;;;;5084616;28;20060;-59
2023/10/07 05:48:59;;;;;;;12.70;5.35;;;;;;;;;;5083012;28;20515;-59
2023/10/07 05:51:25;;;;;;;16.17;5.72;;;;;;;;;;5082940;28;20056;-59
2023/10/07 05:53:52;;;;;;;17.38;5.97;;;;;;;;;;5097670;27;20110;-59
2023/10/07 05:56:19;;;;;;;17.15;5.32;;;;;;;;;;5083357;28;20056;-58
2023/10/07 05:58:45;;;;;;;16.80;5.97;;;;;;;;;;5083795;28;20076;-60
2023/10/07 06:01:12;;;;;;;18.30;5.47;;;;;;;;;;5082967;28;20059;-59
2023/10/07 06:03:38;;;;;;;14.98;6.00;;;;;;;;;;5083579;28;20056;-59
2023/10/07 06:06:06;;;;;;;12.60;5.43;;;;;;;;;;5082470;28;20163;-59
2023/10/07 06:08:33;;;;;;;11.30;5.22;;;;;;;;;;5083462;28;20102;-59
2023/10/07 06:11:00;;;;;;;18.60;4.50;;;;;;;;;;5078404;28;20064;-59
2023/10/07 06:13:27;;;;;;;15.05;4.90;;;;;;;;;;5083726;28;20708;-58
2023/10/07 06:15:55;;;;;;;17.05;5.47;;;;;;;;;;5083324;28;20577;-60
2023/10/07 06:18:22;;;;;;;20.15;5.20;;;;;;;;;;5079598;28;20580;-60
2023/10/07 06:20:51;;;;;;;13.57;5.28;;;;;;;;;;5082134;28;20509;-58
2023/10/07 06:23:19;;;;;;;17.25;5.32;;;;;;;;;;5082002;28;20059;-60
2023/10/07 06:25:49;;;;;;;14.07;4.65;;;;;;;;;;5082775;28;20048;-59
2023/10/07 06:28:24;;;;;;;13.57;4.72;;;;;;;;;;5081709;28;20076;-60
2023/10/07 06:30:56;;;;;;;14.30;5.13;;;;;;;;;;5083387;28;20088;-59
2023/10/07 06:33:23;;;;;;;13.65;4.32;;;;;;;;;;5079765;28;20327;-61
2023/10/07 06:35:51;;;;;;;15.77;4.47;;;;;;;;;;5082411;28;20148;-59
2023/10/07 06:38:21;;;;;;;15.88;5.30;;;;;;;;;;5082718;28;20048;-60
2023/10/07 06:40:53;;;;;;;16.15;4.70;;;;;;;;;;5083101;28;20084;-59
2023/10/07 06:43:21;;;;;;;14.02;4.00;;;;;;;;;;5082439;28;20491;-59
2023/10/07 06:45:48;;;;;;;12.50;4.07;;;;;;;;;;5081001;28;20110;-58
2023/10/07 06:48:23;;;;;;;14.50;4.60;;;;;;;;;;5082361;28;20044;-59
2023/10/07 06:50:52;;;;;;;14.02;4.38;;;;;;;;;;5082119;28;20059;-59
2023/10/07 06:53:22;;;;;;;13.63;4.53;;;;;;;;;;5068932;28;20139;-58
2023/10/07 06:55:51;;;;;;;21.25;5.55;;;;;;;;;;5080840;28;20044;-58
2023/10/07 06:58:22;;;;;;;17.73;5.20;;;;;;;;;;5082275;28;20053;-59
2023/10/07 07:00:49;;;;;;;17.02;5.60;;;;;;;;;;5082301;28;20518;-59
2023/10/07 07:03:18;;;;;;;16.10;6.20;;;;;;;;;;5082373;28;20495;-59
2023/10/07 07:05:45;;;;;;;19.77;5.55;;;;;;;;;;5083487;28;20055;-60
2023/10/07 07:08:12;;;;;;;15.85;5.82;;;;;;;;;;5081876;28;20049;-60
2023/10/07 07:10:40;;;;;;;12.75;4.97;;;;;;;;;;5082711;28;20080;-59
2023/10/07 07:13:13;;;;;;;15.50;5.88;;;;;;;;;;5081444;28;20052;-58
2023/10/07 07:15:43;;;;;;;16.17;6.20;;;;;;;;;;5064053;28;20653;-59
2023/10/07 07:20:48;;;;;;;18.27;6.78;;;;;;;;;;5081966;28;20078;-60
2023/10/07 07:23:16;;;;;;;14.35;5.72;;;;;;;;;;5082130;28;20650;-60
2023/10/07 07:25:43;;;;;;;17.13;6.70;;;;;;;;;;5082137;28;20569;-59
2023/10/07 07:28:10;;;;;;;21.55;6.20;;;;;;;;;;5077437;28;20263;-59
2023/10/07 07:30:36;;;;;;;18.83;6.25;;;;;;;;;;5078426;28;20612;-59
2023/10/07 07:33:08;;;;;;;24.48;7.53;;;;;;;;;;5078247;28;20077;-61
2023/10/07 07:35:43;;;;;;;19.88;7.07;;;;;;;;;;5081577;28;20407;-60
2023/10/07 07:41:08;;;;;;;18.77;7.65;;;;;;;;;;5053487;28;20650;-61
2023/10/07 07:43:37;;;;;;;21.92;7.40;;;;;;;;;;5081581;28;20139;-60
2023/10/07 07:46:12;;;;;;;25.08;7.85;;;;;;;;;;5081403;28;20106;-60
2023/10/07 07:48:39;;;;;;;16.75;7.18;;;;;;;;;;5080466;28;20683;-58
2023/10/07 07:51:07;;;;;;;22.88;7.70;;;;;;;;;;5080835;28;20491;-60
2023/10/07 07:53:34;;;;;;;19.40;7.13;;;;;;;;;;5069103;28;20048;-60
2023/10/07 07:56:00;;;;;;;17.80;7.05;;;;;;;;;;5081139;28;20076;-60
2023/10/07 07:58:27;;;;;;;22.13;7.57;;;;;;;;;;5080615;28;20083;-57
2023/10/07 08:00:59;;;;;;;22.77;7.53;;;;;;;;;;5079392;28;20048;-58
2023/10/07 08:03:25;;;;;;;19.65;7.80;;;;;;;;;;5081882;28;20132;-60
2023/10/07 08:05:54;;;;;;;15.82;6.65;;;;;;;;;;5080606;28;20053;-60
2023/10/07 08:08:24;;;;;;;23.27;7.80;;;;;;;;;;5076626;28;20226;-59
2023/10/07 08:10:54;;;;;;;24.33;8.13;;;;;;;;;;5072545;28;20058;-60
2023/10/07 08:13:27;;;;;;;22.45;7.53;;;;;;;;;;5081413;28;20139;-60
2023/10/07 08:15:54;;;;;;;17.33;6.43;;;;;;;;;;5081783;28;20048;-60
2023/10/07 08:18:28;;;;;;;23.63;8.90;;;;;;;;;;5072980;28;20130;-61
2023/10/07 08:21:13;;;;;;;16.20;7.18;;;;;;;;;;5081430;28;20052;-60
2023/10/07 08:23:40;;;;;;;17.38;7.30;;;;;;;;;;5081485;28;20076;-61
2023/10/07 08:26:10;;;;;;;22.05;7.72;;;;;;;;;;5075670;28;20053;-60
2023/10/07 08:28:42;;;;;;;20.90;7.35;;;;;;;;;;5069438;28;20596;-60
2023/10/07 08:31:17;;;;;;;20.38;6.55;;;;;;;;;;5081024;28;20595;-61
2023/10/07 08:34:04;;;;;;;16.88;7.22;;;;;;;;;;5081780;28;20084;-61
2023/10/07 08:36:43;;;;;;;18.20;6.13;;;;;;;;;;5080531;28;20642;-61
2023/10/07 08:39:10;;;;;;;21.75;6.47;;;;;;;;;;5081353;28;20063;-61
2023/10/07 08:41:40;;;;;;;15.23;6.00;;;;;;;;;;5080930;28;20056;-61
2023/10/07 08:44:18;;;;;;;22.95;6.68;;;;;;;;;;5081755;28;20052;-61
2023/10/07 08:46:56;;;;;;;19.65;6.80;;;;;;;;;;5077452;28;20091;-61
2023/10/07 08:49:26;;;;;;;18.55;5.88;;;;;;;;;;5071823;28;20053;-61
2023/10/07 08:51:54;;;;;;;16.35;5.93;;;;;;;;;;5079329;28;20144;-62
2023/10/07 08:54:31;;;;;;;21.55;5.55;;;;;;;;;;5082066;28;20135;-62
2023/10/07 08:57:06;;;;;;;16.80;5.35;;;;;;;;;;5061640;28;20553;-62
2023/10/07 08:59:33;;;;;;;14.45;4.78;;;;;;;;;;5079976;28;20052;-61
2023/10/07 09:02:00;;;;;;;13.07;4.30;;;;;;;;;;5084641;28;20114;-62
2023/10/07 09:04:36;;;;;;;14.98;5.13;;;;;;;;;;5083444;28;20103;-61
2023/10/07 09:07:11;;;;;;;16.98;4.57;;;;;;;;;;5065696;28;20060;-61
2023/10/07 09:09:38;;;;;;;15.87;5.50;;;;;;;;;;5100525;28;20067;-61
2023/10/07 09:12:11;;;;;;;17.98;5.75;;;;;;;;;;5083731;28;20118;-62
2023/10/07 09:14:45;;;;;;;15.40;4.70;;;;;;;;;;5083868;28;20575;-62
2023/10/07 09:17:12;;;;;;;17.75;5.35;;;;;;;;;;5084960;28;20145;-61
2023/10/07 09:19:43;;;;;;;14.30;4.47;;;;;;;;;;5083409;28;20419;-62
2023/10/07 09:22:14;;;;;;;9.95;4.53;;;;;;;;;;5077754;28;20059;-62
2023/10/07 09:24:44;;;;;;;15.48;5.00;;;;;;;;;;5094813;28;20052;-62
2023/10/07 09:27:13;;;;;;;19.35;4.95;;;;;;;;;;5085807;28;20063;-61
2023/10/07 09:29:44;;;;;;;14.48;4.50;;;;;;;;;;5083677;28;20535;-62
2023/10/07 09:32:16;;;;;;;16.83;4.35;;;;;;;;;;5084485;28;20601;-61
2023/10/07 09:34:44;;;;;;;17.17;5.05;;;;;;;;;;5076489;28;20107;-62
2023/10/07 09:37:20;;;;;;;11.90;4.15;;;;;;;;;;5076261;28;20080;-62
2023/10/07 09:39:54;;;;;;;16.98;4.55;;;;;;;;;;5076963;28;20080;-62
2023/10/07 09:42:26;;;;;;;13.20;3.80;;;;;;;;;;5066211;28;20590;-62
2023/10/07 09:44:55;;;;;;;18.92;5.50;;;;;;;;;;5067505;28;20144;-61
2023/10/07 09:47:22;;;;;;;14.73;4.57;;;;;;;;;;5081313;28;20206;-62
2023/10/07 09:49:50;;;;;;;15.68;4.32;;;;;;;;;;5082729;28;20139;-61
2023/10/07 09:52:19;;;;;;;17.63;4.85;;;;;;;;;;5079042;28;20482;-62
2023/10/07 09:54:57;;;;;;;12.85;4.32;;;;;;;;;;5085136;28;20427;-62
2023/10/07 09:57:29;;;;;;;11.35;4.07;;;;;;;;;;5064275;28;20053;-62
2023/10/07 09:59:56;;;;;;;9.65;3.65;;;;;;;;;;5079783;28;20148;-62
2023/10/07 10:02:43;;;;;;;16.45;4.72;;;;;;;;;;5078599;28;20587;-62
2023/10/07 10:05:25;;;;;;;15.23;4.60;;;;;;;;;;5070381;28;20168;-60
2023/10/07 10:08:11;;;;;;;12.57;4.63;;;;;;;;;;5079043;28;20056;-61
2023/10/07 10:10:44;;;;;;;14.13;4.20;;;;;;;;;;5082747;28;20076;-61
2023/10/07 10:14:29;;;;;;;19.25;4.35;;;;;;;;;;5069129;28;20136;-61
2023/10/07 10:16:20;;;;;;;18.33;5.60;;;;;;;;;;5074512;28;20056;-61
2023/10/07 10:19:11;;;;;;;16.23;5.15;;;;;;;;;;5083291;28;20086;-62
2023/10/07 10:21:38;;;;;;;16.38;4.88;;;;;;;;;;5082947;28;20438;-61
2023/10/07 10:24:04;;;;;;;13.00;4.50;;;;;;;;;;5083582;28;20494;-61
2023/10/07 10:26:33;;;;;;;13.15;3.83;;;;;;;;;;5083559;28;20048;-61
2023/10/07 10:29:00;;;;;;;16.25;4.55;;;;;;;;;;5082966;28;20053;-61
2023/10/07 10:31:32;;;;;;;12.73;4.25;;;;;;;;;;5082537;28;20063;-61
2023/10/07 10:33:59;;;;;;;12.50;4.28;;;;;;;;;;5082665;28;20052;-61
2023/10/07 10:36:25;;;;;;;12.43;4.35;;;;;;;;;;5082530;28;20056;-62
2023/10/07 10:38:52;;;;;;;12.38;4.75;;;;;;;;;;5083342;28;20075;-61
2023/10/07 10:41:28;;;;;;;9.82;3.63;;;;;;;;;;5083808;28;20133;-61
2023/10/07 10:44:04;;;;;;;13.48;4.13;;;;;;;;;;5079742;28;20514;-61
2023/10/07 10:46:43;;;;;;;12.68;3.88;;;;;;;;;;5077548;28;20133;-61
2023/10/07 10:49:12;;;;;;;11.13;5.38;;;;;;;;;;5080817;28;20059;-61
2023/10/07 10:51:39;;;;;;;15.27;5.50;;;;;;;;;;5081344;28;20052;-61
2023/10/07 10:54:06;;;;;;;10.68;3.88;;;;;;;;;;5078304;28;20049;-61
2023/10/07 10:56:33;;;;;;;13.65;4.47;;;;;;;;;;5081744;28;20146;-61
2023/10/07 10:59:01;;;;;;;13.02;4.15;;;;;;;;;;5082225;28;20138;-60
2023/10/07 11:01:36;;;;;;;14.88;4.40;;;;;;;;;;5083415;28;20048;-60
2023/10/07 11:04:06;;;;;;;12.02;4.28;;;;;;;;;;5063057;28;20072;-60
2023/10/07 11:06:35;;;;;;;15.52;5.40;;;;;;;;;;5078175;28;20049;-60
2023/10/07 11:09:03;;;;;;;17.95;4.53;;;;;;;;;;5082518;28;20495;-61
2023/10/07 11:11:30;;;;;;;18.40;4.93;;;;;;;;;;5080631;28;20080;-60
2023/10/07 11:13:56;;;;;;;18.35;5.07;;;;;;;;;;5083791;28;20147;-60
2023/10/07 11:16:23;;;;;;;11.75;4.22;;;;;;;;;;5081424;28;20516;-61
2023/10/07 11:18:51;;;;;;;13.63;4.40;;;;;;;;;;5082036;28;20115;-61
2023/10/07 11:21:21;;;;;;;14.98;4.88;;;;;;;;;;5080860;28;20045;-60
2023/10/07 11:23:49;;;;;;;14.65;4.65;;;;;;;;;;5082815;28;20052;-59
2023/10/07 11:26:19;;;;;;;12.43;5.03;;;;;;;;;;5078997;28;20063;-60
2023/10/07 11:28:48;;;;;;;14.38;5.20;;;;;;;;;;5079099;28;20144;-60
2023/10/07 11:31:20;;;;;;;14.82;4.97;;;;;;;;;;5081633;28;20052;-60
2023/10/07 11:33:50;;;;;;;11.27;4.82;;;;;;;;;;5080577;28;20049;-60
2023/10/07 11:36:17;;;;;;;15.82;5.55;;;;;;;;;;5083482;28;20052;-61
2023/10/07 11:38:44;;;;;;;15.73;4.25;;;;;;;;;;5081413;28;20122;-60
2023/10/07 11:41:10;;;;;;;11.25;4.47;;;;;;;;;;5082015;28;20049;-60
2023/10/07 11:43:43;;;;;;;16.42;4.97;;;;;;;;;;5082120;28;20064;-60
2023/10/07 11:46:13;;;;;;;11.95;4.40;;;;;;;;;;5082094;28;20094;-60
2023/10/07 11:48:44;;;;;;;8.05;3.85;;;;;;;;;;5080743;28;20063;-60
2023/10/07 11:51:11;;;;;;;10.82;4.00;;;;;;;;;;5082039;28;20056;-61
2023/10/07 11:53:40;;;;;;;10.63;4.35;;;;;;;;;;5081724;28;20098;-60
2023/10/07 11:56:11;;;;;;;9.98;4.22;;;;;;;;;;5078341;28;20625;-59
2023/10/07 11:58:38;;;;;;;9.95;3.70;;;;;;;;;;5071295;28;20063;-60
2023/10/07 12:01:05;;;;;;;10.57;4.30;;;;;;;;;;5081830;28;20596;-61
2023/10/07 12:03:34;;;;;;;10.77;4.18;;;;;;;;;;5081945;28;20056;-62
2023/10/07 12:06:00;;;;;;;8.55;3.83;;;;;;;;;;5082115;28;20058;-61
2023/10/07 12:08:27;;;;;;;11.07;4.18;;;;;;;;;;5081031;28;20585;-60
2023/10/07 12:10:56;;;;;;;11.35;3.65;;;;;;;;;;5072096;28;20053;-61
2023/10/07 12:13:23;;;;;;;8.95;3.88;;;;;;;;;;5076620;28;20048;-61
2023/10/07 12:15:50;;;;;;;13.40;4.45;;;;;;;;;;5082017;28;20135;-60
2023/10/07 12:18:31;;;;;;;9.73;4.28;;;;;;;;;;5081046;28;20139;-58
2023/10/07 12:21:00;;;;;;;12.68;4.35;;;;;;;;;;5081302;28;20143;-60
2023/10/07 12:23:28;;;;;;;9.13;3.75;;;;;;;;;;5081971;28;20052;-60
2023/10/07 12:25:54;;;;;;;9.77;3.95;;;;;;;;;;5081687;28;20092;-61
2023/10/07 12:28:21;;;;;;;9.85;3.53;;;;;;;;;;5081130;28;20045;-59
2023/10/07 12:30:49;;;;;;;11.43;4.10;;;;;;;;;;5065478;28;20053;-62
2023/10/07 12:33:15;;;;;;;9.32;3.83;;;;;;;;;;5083668;28;20055;-60
2023/10/07 12:36:00;;;;;;;14.52;5.25;;;;;;;;;;5083957;28;20057;-61
2023/10/07 12:38:27;;;;;;;11.15;4.10;;;;;;;;;;5084869;28;20114;-61
2023/10/07 12:40:54;;;;;;;9.68;3.88;;;;;;;;;;5083356;28;20056;-61
2023/10/07 12:43:22;;;;;;;13.48;4.40;;;;;;;;;;5084567;28;20083;-60
2023/10/07 12:45:49;;;;;;;10.20;3.67;;;;;;;;;;5085875;28;20473;-59
2023/10/07 12:48:16;;;;;;;11.82;4.50;;;;;;;;;;5083215;28;20578;-60
2023/10/07 12:50:42;;;;;;;15.48;3.97;;;;;;;;;;5081809;28;20111;-59
2023/10/07 12:53:10;;;;;;;12.40;4.32;;;;;;;;;;5084303;28;20583;-60
2023/10/07 12:55:39;;;;;;;12.45;4.32;;;;;;;;;;5085539;28;20048;-60
2023/10/07 12:58:05;;;;;;;12.38;4.15;;;;;;;;;;5084832;28;20139;-61
2023/10/07 13:00:33;;;;;;;9.50;4.25;;;;;;;;;;5077079;28;20053;-60
2023/10/07 13:03:07;;;;;;;9.75;3.78;;;;;;;;;;5080793;28;20056;-61
2023/10/07 13:05:42;;;;;;;12.85;4.60;;;;;;;;;;5084972;28;20053;-61
2023/10/07 13:08:18;;;;;;;13.88;4.70;;;;;;;;;;5085407;28;20056;-61
2023/10/07 13:10:45;;;;;;;14.02;4.50;;;;;;;;;;5075970;28;20140;-61
2023/10/07 13:13:13;;;;;;;9.65;4.15;;;;;;;;;;5081899;28;20063;-60
2023/10/07 13:15:42;;;;;;;11.88;3.95;;;;;;;;;;5083855;28;20056;-60
2023/10/07 13:18:13;;;;;;;12.88;4.25;;;;;;;;;;5083374;28;20057;-61
2023/10/07 13:20:40;;;;;;;15.88;5.18;;;;;;;;;;5078368;28;20084;-61
2023/10/07 13:23:10;;;;;;;12.38;4.40;;;;;;;;;;5085075;28;20127;-61
2023/10/07 13:25:37;;;;;;;12.77;4.53;;;;;;;;;;5083159;28;20053;-61
2023/10/07 13:28:05;;;;;;;9.40;3.90;;;;;;;;;;5081038;28;20044;-60
2023/10/07 13:30:34;;;;;;;11.57;4.30;;;;;;;;;;5083966;28;20283;-61
2023/10/07 13:33:05;;;;;;;14.45;4.53;;;;;;;;;;5085018;28;20056;-61
2023/10/07 13:35:32;;;;;;;11.63;3.90;;;;;;;;;;5085250;28;20044;-61
2023/10/07 13:38:00;;;;;;;10.23;3.75;;;;;;;;;;5084254;28;20056;-61
2023/10/07 13:40:29;;;;;;;10.60;3.95;;;;;;;;;;5079116;28;20052;-58
2023/10/07 13:42:56;;;;;;;10.93;4.20;;;;;;;;;;5066703;28;20085;-60
2023/10/07 13:45:24;;;;;;;13.70;4.22;;;;;;;;;;5077398;28;20052;-60
2023/10/07 13:47:51;;;;;;;11.77;4.65;;;;;;;;;;5082837;28;20052;-61
2023/10/07 13:50:25;;;;;;;12.55;4.35;;;;;;;;;;5078684;28;20056;-61
2023/10/07 13:58:12;;;;;;;8.90;4.38;;;;;;;;;;5090188;27;20086;-61
2023/10/07 14:00:44;;;;;;;10.85;4.30;;;;;;;;;;5076651;28;20114;-61
2023/10/07 14:03:20;;;;;;;13.93;4.75;;;;;;;;;;5080219;28;20556;-61
2023/10/07 14:06:06;;;;;;;12.50;4.50;;;;;;;;;;5073683;28;20605;-61
2023/10/07 14:08:42;;;;;;;12.30;4.57;;;;;;;;;;5070589;28;20052;-60
2023/10/07 14:11:09;;;;;;;8.55;4.45;;;;;;;;;;5080559;28;20056;-61
2023/10/07 14:13:39;;;;;;;10.60;4.47;;;;;;;;;;5077852;28;20143;-59
2023/10/07 14:16:10;;;;;;;12.98;5.18;;;;;;;;;;5080189;28;20549;-60
2023/10/07 14:18:39;;;;;;;13.95;5.47;;;;;;;;;;5072540;28;20506;-60
2023/10/07 14:21:06;;;;;;;14.45;5.20;;;;;;;;;;5082015;28;20056;-60
2023/10/07 14:23:36;;;;;;;13.98;4.93;;;;;;;;;;5082014;28;20052;-60
2023/10/07 14:26:03;;;;;;;11.93;4.55;;;;;;;;;;5083301;28;20148;-60
2023/10/07 14:28:30;;;;;;;12.63;4.95;;;;;;;;;;5081803;28;20144;-59
2023/10/07 14:30:57;;;;;;;11.50;4.18;;;;;;;;;;5083020;28;20060;-61
2023/10/07 14:33:24;;;;;;;18.13;4.95;;;;;;;;;;5082031;28;20062;-60
2023/10/07 14:35:52;;;;;;;13.05;4.55;;;;;;;;;;5081130;28;20048;-59
2023/10/07 14:38:20;;;;;;;11.82;4.30;;;;;;;;;;5083677;28;20727;-62
2023/10/07 14:40:50;;;;;;;11.30;4.63;;;;;;;;;;5076708;28;20052;-60
2023/10/07 14:43:17;;;;;;;11.85;4.03;;;;;;;;;;5083268;28;20593;-61
2023/10/07 14:45:48;;;;;;;14.25;5.40;;;;;;;;;;5081405;28;20507;-60
2023/10/07 14:48:15;;;;;;;20.58;5.75;;;;;;;;;;5083973;28;20063;-59
2023/10/07 14:50:43;;;;;;;12.88;5.43;;;;;;;;;;5081798;28;20576;-61
2023/10/07 14:53:12;;;;;;;9.52;4.75;;;;;;;;;;5082111;28;20494;-61
2023/10/07 14:55:44;;;;;;;12.23;4.57;;;;;;;;;;5081222;28;20549;-60
2023/10/07 14:58:14;;;;;;;13.32;4.70;;;;;;;;;;5073778;28;20067;-61
2023/10/07 15:00:41;;;;;;;13.55;4.63;;;;;;;;;;5070560;28;20056;-60
2023/10/07 15:03:09;;;;;;;14.48;4.70;;;;;;;;;;5082718;28;20565;-61
2023/10/07 15:05:37;;;;;;;14.25;4.60;;;;;;;;;;5081992;28;20435;-61
2023/10/07 15:08:04;;;;;;;12.23;4.75;;;;;;;;;;5079372;28;20143;-60
2023/10/07 15:10:31;;;;;;;13.50;4.45;;;;;;;;;;5082785;28;20143;-61
2023/10/07 15:12:58;;;;;;;19.63;5.95;;;;;;;;;;5081227;28;20056;-61
2023/10/07 15:15:24;;;;;;;22.67;5.95;;;;;;;;;;5080082;28;20048;-59
2023/10/07 15:17:51;;;;;;;18.55;5.60;;;;;;;;;;5073850;28;20477;-60
2023/10/07 15:20:17;;;;;;;13.75;4.90;;;;;;;;;;5084859;28;20052;-60
2023/10/07 15:22:44;;;;;;;10.98;4.78;;;;;;;;;;5080621;28;20411;-61
2023/10/07 15:25:11;;;;;;;20.60;5.28;;;;;;;;;;5074609;28;20458;-60
2023/10/07 15:27:38;;;;;;;13.85;4.93;;;;;;;;;;5083236;28;20056;-60
2023/10/07 15:30:05;;;;;;;11.98;4.38;;;;;;;;;;5079663;28;20060;-61